OEJN/JED METAR and TAF weather

Enter ICAO airport designator
Station Type Date Time Source
OEJN METAR 2020/11/27 02:00 UTC NOAA

OEJN 270200Z 35004KT 9999 SCT040 24/18 Q1011 NOSIG


Station Type Date Time Source
OEJN Decoded METAR 2020/11/27 02:00 UTC NOAA

Jeddah King Abdul Aziz International Airport , Saudi Arabia (OEJN) 21-42N 039-11E 17M
Nov 26, 2020 - 09:00 PM EST / 2020.11.27 0200 UTC
Wind: from the N (350 degrees) at 5 MPH (4 KT):0
Visibility: greater than 7 mile(s):0
Sky conditions: partly cloudy
Temperature: 75 F (24 C)
Dew Point: 64 F (18 C)
Relative Humidity: 69%
Pressure (altimeter): 29.85 in. Hg (1011 hPa)
ob: OEJN 270200Z 35004KT 9999 SCT040 24/18 Q1011 NOSIG
cycle: 2

Station Type Date Time Source
OEJN TAF 2020/11/26 18:33 UTC NOAA

TAF OEJN 261700Z 2618/2724 03008KT 9999 SCT040 SCT090
TEMPO 2618/2707 6000 RA
TEMPO 2700/2706 TSRA FEW030CB
BECMG 2710/2712 34015KT

Example: see airport list